Time;durP1;ratioP1;P1;durP2;ratioP2;P2;SDS_P1;SDS_P2;PMS_P1;PMS_P2;Temp;Humidity;BMP_temperature;BMP_pressure;BME280_temperature;BME280_humidity;BME280_pressure;Samples;Min_cycle;Max_cycle;Signal;HPM_P1;HPM_P2
2023/09/26 00:00:08;;;;;;;;;;;15.30;99.90;;;;;;4859892;29;20056;-80
2023/09/26 00:02:35;;;;;;;1.13;0.90;;;15.30;99.90;;;;;;4857323;29;20050;-79
2023/09/26 00:05:03;;;;;;;1.52;1.00;;;15.30;99.90;;;;;;4838459;29;20052;-79
2023/09/26 00:07:29;;;;;;;1.38;0.90;;;15.20;99.90;;;;;;4857197;29;20045;-79
2023/09/26 00:09:55;;;;;;;1.33;1.00;;;15.20;99.90;;;;;;4844264;29;20128;-79
2023/09/26 00:12:22;;;;;;;1.40;0.90;;;15.20;99.90;;;;;;4840891;29;20386;-79
2023/09/26 00:14:47;;;;;;;1.75;1.20;;;15.20;99.90;;;;;;4855034;29;20041;-80
2023/09/26 00:17:14;;;;;;;1.00;0.90;;;15.20;99.90;;;;;;4853877;29;20394;-79
2023/09/26 00:19:40;;;;;;;1.55;0.95;;;15.20;99.90;;;;;;4847246;29;20524;-79
2023/09/26 00:22:06;;;;;;;1.10;1.00;;;15.10;99.90;;;;;;4836194;29;20086;-79
2023/09/26 00:24:32;;;;;;;0.88;0.80;;;15.10;99.90;;;;;;4861913;29;20154;-80
2023/09/26 00:26:58;;;;;;;1.10;1.00;;;15.10;99.90;;;;;;4844668;29;20057;-79
2023/09/26 00:29:24;;;;;;;0.98;0.80;;;15.20;99.90;;;;;;4860191;29;20044;-79
2023/09/26 00:31:53;;;;;;;2.35;1.10;;;15.20;99.90;;;;;;4860594;29;20378;-79
2023/09/26 00:34:19;;;;;;;0.95;0.80;;;15.10;99.90;;;;;;4858529;29;20053;-79
2023/09/26 00:36:45;;;;;;;1.00;0.80;;;15.10;99.90;;;;;;4851314;29;20053;-80
2023/09/26 00:39:11;;;;;;;1.15;0.88;;;15.10;99.90;;;;;;4852056;29;20480;-79
2023/09/26 00:41:38;;;;;;;;;;;15.00;99.90;;;;;;4845444;29;20120;-80
2023/09/26 00:44:06;;;;;;;1.13;1.00;;;15.00;99.90;;;;;;4867072;29;20352;-79
2023/09/26 00:46:32;;;;;;;1.80;1.02;;;15.00;99.90;;;;;;4864195;29;20132;-79
2023/09/26 00:49:00;;;;;;;1.13;0.82;;;14.90;99.90;;;;;;4855125;29;20148;-79
2023/09/26 00:51:26;;;;;;;1.50;0.70;;;14.90;99.90;;;;;;4854235;29;20050;-79
2023/09/26 00:53:52;;;;;;;1.30;0.93;;;14.80;99.90;;;;;;4863439;29;20143;-79
2023/09/26 00:56:18;;;;;;;2.00;1.10;;;14.80;99.90;;;;;;4864120;29;20128;-79
2023/09/26 00:58:46;;;;;;;1.08;0.88;;;14.80;99.90;;;;;;4857316;29;20033;-79
2023/09/26 01:01:12;;;;;;;1.38;0.80;;;14.70;99.90;;;;;;4833407;29;20041;-79
2023/09/26 01:03:38;;;;;;;1.60;0.80;;;14.70;99.90;;;;;;4861596;29;20393;-79
2023/09/26 01:06:05;;;;;;;1.08;0.80;;;14.70;99.90;;;;;;4855519;29;20492;-79
2023/09/26 01:08:31;;;;;;;1.40;1.00;;;14.60;99.90;;;;;;4850013;29;20052;-79
2023/09/26 01:11:00;;;;;;;1.10;1.00;;;14.60;99.90;;;;;;4853495;29;20045;-79
2023/09/26 01:13:25;;;;;;;2.03;1.10;;;14.50;99.90;;;;;;4860155;29;20045;-80
2023/09/26 01:15:51;;;;;;;1.00;0.80;;;14.50;99.90;;;;;;4846496;29;20101;-79
2023/09/26 01:18:17;;;;;;;1.40;0.80;;;14.50;99.90;;;;;;4849239;29;20446;-80
2023/09/26 01:20:45;;;;;;;2.20;0.80;;;14.40;99.90;;;;;;4853355;29;20055;-79
2023/09/26 01:23:13;;;;;;;1.98;0.75;;;14.40;99.90;;;;;;4842978;29;20048;-79
2023/09/26 01:25:40;;;;;;;1.13;0.90;;;14.30;99.90;;;;;;4861794;29;20089;-79
2023/09/26 01:28:07;;;;;;;1.92;1.10;;;14.30;99.90;;;;;;4858879;29;20136;-79
2023/09/26 01:30:39;;;;;;;1.20;1.02;;;14.20;99.90;;;;;;4851512;29;20080;-79
2023/09/26 01:33:19;;;;;;;1.45;0.85;;;14.10;99.90;;;;;;4858158;29;20060;-79
2023/09/26 01:35:44;;;;;;;1.17;0.77;;;14.10;99.90;;;;;;4836501;29;20454;-79
2023/09/26 01:38:10;;;;;;;1.20;0.98;;;14.10;99.90;;;;;;4858963;29;20037;-79
2023/09/26 01:40:36;;;;;;;1.25;1.10;;;14.10;99.90;;;;;;4855125;29;20052;-79
2023/09/26 01:43:02;;;;;;;1.77;1.00;;;14.10;99.90;;;;;;4844351;29;20041;-80
2023/09/26 01:45:27;;;;;;;1.67;1.05;;;14.10;99.90;;;;;;4859153;29;20116;-79
2023/09/26 01:47:53;;;;;;;1.13;0.80;;;14.00;99.90;;;;;;4859183;29;20417;-79
2023/09/26 01:50:21;;;;;;;1.17;0.90;;;14.00;99.90;;;;;;4860700;29;20041;-79
2023/09/26 01:52:47;;;;;;;1.92;1.20;;;14.00;99.90;;;;;;4848317;29;20085;-79
2023/09/26 01:55:16;;;;;;;1.20;1.02;;;13.90;99.90;;;;;;4859788;29;20057;-80
2023/09/26 01:57:42;;;;;;;1.50;1.10;;;13.90;99.90;;;;;;4855792;29;20169;-80
2023/09/26 02:00:11;;;;;;;1.88;1.00;;;13.80;99.90;;;;;;4855865;29;20128;-80
2023/09/26 02:02:46;;;;;;;1.27;1.05;;;13.80;99.90;;;;;;4847429;29;20053;-79
2023/09/26 02:05:14;;;;;;;1.63;1.23;;;13.80;99.90;;;;;;4855184;29;20081;-80
2023/09/26 02:07:40;;;;;;;1.65;1.10;;;13.80;99.90;;;;;;4842141;29;20128;-79
2023/09/26 02:10:06;;;;;;;1.50;1.10;;;13.80;99.90;;;;;;4859749;29;20156;-80
2023/09/26 02:12:37;;;;;;;1.50;1.25;;;13.70;99.90;;;;;;4849500;29;20513;-80
2023/09/26 02:15:05;;;;;;;1.40;1.00;;;13.60;99.90;;;;;;4856465;29;20199;-80
2023/09/26 02:17:35;;;;;;;2.40;1.10;;;13.60;99.90;;;;;;4825741;29;20165;-81
2023/09/26 02:20:12;;;;;;;2.03;1.35;;;13.60;99.90;;;;;;4849369;29;20204;-81
2023/09/26 02:22:45;;;;;;;1.30;1.05;;;13.50;99.90;;;;;;4858316;29;20573;-81
2023/09/26 02:25:12;;;;;;;1.00;0.90;;;13.50;99.90;;;;;;4859554;29;20044;-81
2023/09/26 02:27:38;;;;;;;1.00;0.90;;;13.50;99.90;;;;;;4847572;29;20136;-81
2023/09/26 02:30:06;;;;;;;1.48;1.30;;;13.40;99.90;;;;;;4861435;29;20123;-81
2023/09/26 02:32:35;;;;;;;1.40;1.10;;;13.50;99.90;;;;;;4840153;29;20374;-81
2023/09/26 02:35:07;;;;;;;1.55;1.00;;;13.50;99.90;;;;;;4852354;29;20056;-81
2023/09/26 02:37:33;;;;;;;1.58;1.10;;;13.50;99.90;;;;;;4845080;29;20053;-81
2023/09/26 02:40:00;;;;;;;;;;;13.50;99.90;;;;;;4838082;29;20116;-78
2023/09/26 02:42:26;;;;;;;1.35;1.10;;;13.50;99.90;;;;;;4860909;29;20022;-81
2023/09/26 02:44:52;;;;;;;1.73;1.20;;;13.50;99.90;;;;;;4842416;29;20061;-81
2023/09/26 02:47:18;;;;;;;1.33;1.10;;;13.50;99.90;;;;;;4853198;29;20049;-81
2023/09/26 02:49:43;;;;;;;1.20;1.10;;;13.50;99.90;;;;;;4847091;29;20057;-81
2023/09/26 02:52:09;;;;;;;1.63;1.13;;;13.50;99.90;;;;;;4856643;29;20508;-81
2023/09/26 02:54:35;;;;;;;1.38;1.00;;;13.50;99.90;;;;;;4843155;29;20511;-81
2023/09/26 02:57:00;;;;;;;1.63;1.10;;;13.40;99.90;;;;;;4845763;29;20121;-81
2023/09/26 02:59:26;;;;;;;1.17;1.00;;;13.40;99.90;;;;;;4858497;29;20045;-81
2023/09/26 03:01:52;;;;;;;2.53;1.30;;;13.30;99.90;;;;;;4854176;29;20377;-81
2023/09/26 03:04:17;;;;;;;1.58;1.15;;;13.20;99.90;;;;;;4837434;29;20100;-81
2023/09/26 03:06:43;;;;;;;1.40;1.10;;;13.20;99.90;;;;;;4829321;29;20397;-81
2023/09/26 03:09:09;;;;;;;1.90;1.30;;;13.20;99.90;;;;;;4833327;29;20049;-81
2023/09/26 03:11:35;;;;;;;2.13;1.20;;;13.20;99.90;;;;;;4853212;29;20527;-81
2023/09/26 03:14:01;;;;;;;1.50;1.20;;;13.10;99.90;;;;;;4848644;29;20055;-81
2023/09/26 03:16:27;;;;;;;1.25;1.00;;;13.20;99.90;;;;;;4861613;29;20045;-81
2023/09/26 03:18:54;;;;;;;1.48;1.17;;;13.20;99.90;;;;;;4859014;29;20052;-81
2023/09/26 03:21:20;;;;;;;1.17;1.00;;;13.20;99.90;;;;;;4850879;29;20124;-80
2023/09/26 03:23:46;;;;;;;;;;;13.20;99.90;;;;;;4841168;29;20084;-81
2023/09/26 03:26:15;;;;;;;1.63;1.20;;;13.20;99.90;;;;;;4861379;29;19974;-81
2023/09/26 03:28:41;;;;;;;1.90;1.30;;;13.20;99.90;;;;;;4848821;29;20052;-81
2023/09/26 03:31:08;;;;;;;;;;;13.20;99.90;;;;;;4858838;29;20061;-79
2023/09/26 03:33:34;;;;;;;1.63;1.20;;;13.20;99.90;;;;;;4861582;29;20022;-79
2023/09/26 03:36:00;;;;;;;1.73;1.20;;;13.20;99.90;;;;;;4851062;29;20137;-79
2023/09/26 03:38:26;;;;;;;2.28;1.50;;;13.20;99.90;;;;;;4848463;29;20053;-79
2023/09/26 03:41:00;;;;;;;1.67;1.27;;;13.20;99.90;;;;;;4852285;29;20188;-79
2023/09/26 03:43:26;;;;;;;2.30;1.50;;;13.20;99.90;;;;;;4863926;29;20100;-79
2023/09/26 03:46:10;;;;;;;1.50;1.30;;;13.10;99.90;;;;;;4844673;29;20061;-80
2023/09/26 03:48:36;;;;;;;1.52;1.30;;;13.10;99.90;;;;;;4853521;29;20093;-80
2023/09/26 03:51:09;;;;;;;;;;;13.00;99.90;;;;;;4843874;29;20063;-79
2023/09/26 03:53:35;;;;;;;2.00;1.58;;;12.90;99.90;;;;;;4848046;29;19966;-79
2023/09/26 03:56:01;;;;;;;2.05;1.30;;;12.90;99.90;;;;;;4853709;29;20074;-79
2023/09/26 03:58:27;;;;;;;1.75;1.40;;;12.90;99.90;;;;;;4859654;29;20068;-79
2023/09/26 04:00:52;;;;;;;2.28;1.60;;;12.80;99.90;;;;;;4849682;29;20041;-79
2023/09/26 04:03:20;;;;;;;2.35;1.50;;;12.70;99.90;;;;;;4826075;29;20056;-80
2023/09/26 04:05:48;;;;;;;1.63;1.30;;;12.80;99.90;;;;;;4847915;29;20068;-80
2023/09/26 04:08:17;;;;;;;1.45;1.15;;;12.70;99.90;;;;;;4856909;29;20052;-80
2023/09/26 04:10:43;;;;;;;1.80;1.50;;;12.70;99.90;;;;;;4843700;29;20037;-80
2023/09/26 04:13:08;;;;;;;1.52;1.10;;;12.60;99.90;;;;;;4861351;29;20125;-81
2023/09/26 04:15:38;;;;;;;1.52;1.17;;;12.60;99.90;;;;;;4855944;29;20053;-81
2023/09/26 04:18:07;;;;;;;1.40;1.20;;;12.50;99.90;;;;;;4854545;29;20512;-80
2023/09/26 04:20:36;;;;;;;1.83;1.40;;;12.50;99.90;;;;;;4853025;29;20106;-80
2023/09/26 04:23:03;;;;;;;1.98;1.25;;;12.50;99.90;;;;;;4857908;29;20041;-80
2023/09/26 04:25:30;;;;;;;1.48;1.30;;;12.50;99.90;;;;;;4824249;29;20577;-80
2023/09/26 04:27:56;;;;;;;2.50;1.30;;;12.40;99.90;;;;;;4846643;29;20512;-80
2023/09/26 04:30:23;;;;;;;1.40;1.10;;;12.40;99.90;;;;;;4856551;29;20042;-80
2023/09/26 04:32:49;;;;;;;1.45;1.25;;;12.40;99.90;;;;;;4843612;29;20085;-80
2023/09/26 04:35:14;;;;;;;1.38;1.02;;;12.40;99.90;;;;;;4859717;29;20045;-80
2023/09/26 04:37:41;;;;;;;1.58;1.10;;;12.40;99.90;;;;;;4847391;29;20048;-80
2023/09/26 04:40:10;;;;;;;1.40;1.13;;;12.40;99.90;;;;;;4873485;29;20041;-80
2023/09/26 04:42:39;;;;;;;1.20;1.00;;;12.50;99.90;;;;;;4846908;29;20045;-80
2023/09/26 04:45:05;;;;;;;1.88;1.20;;;12.50;99.90;;;;;;4844125;29;20053;-80
2023/09/26 04:47:31;;;;;;;1.27;0.90;;;12.60;99.90;;;;;;4831018;29;20053;-80
2023/09/26 04:49:57;;;;;;;1.65;1.10;;;12.60;99.90;;;;;;4842488;29;20132;-80
2023/09/26 04:52:23;;;;;;;2.38;1.35;;;12.70;99.90;;;;;;4854573;29;20056;-80
2023/09/26 04:54:52;;;;;;;;;;;12.80;99.90;;;;;;4819122;29;20312;-80
2023/09/26 04:57:17;;;;;;;1.70;1.20;;;12.80;99.90;;;;;;4846361;29;19979;-80
2023/09/26 04:59:43;;;;;;;2.65;1.50;;;12.90;99.90;;;;;;4843575;29;20045;-80
2023/09/26 05:02:09;;;;;;;1.98;1.33;;;13.00;99.90;;;;;;4843349;29;20037;-88
2023/09/26 05:04:35;;;;;;;1.13;1.00;;;13.00;99.90;;;;;;4855197;29;20043;-82
2023/09/26 05:07:00;;;;;;;1.58;1.10;;;13.10;99.90;;;;;;4840631;29;20096;-80
2023/09/26 05:09:26;;;;;;;1.60;1.25;;;13.10;99.90;;;;;;4844774;29;20045;-81
2023/09/26 05:11:52;;;;;;;1.55;1.30;;;13.20;99.90;;;;;;4835994;29;20081;-87
2023/09/26 05:14:18;;;;;;;1.95;1.40;;;13.20;99.90;;;;;;4834068;29;20488;-81
2023/09/26 05:16:43;;;;;;;3.53;1.85;;;13.30;99.90;;;;;;4857529;29;20049;-80
2023/09/26 05:19:09;;;;;;;2.17;1.58;;;13.30;99.90;;;;;;4858771;29;20121;-80
2023/09/26 05:21:35;;;;;;;2.22;1.58;;;13.40;99.90;;;;;;4856368;29;20080;-80
2023/09/26 05:24:00;;;;;;;3.15;1.98;;;13.40;99.90;;;;;;4860202;29;20127;-80
2023/09/26 05:26:26;;;;;;;1.75;1.50;;;13.40;99.90;;;;;;4850756;29;20048;-81
2023/09/26 05:28:52;;;;;;;1.98;1.65;;;13.40;99.90;;;;;;4875258;29;20072;-78
2023/09/26 05:31:18;;;;;;;2.25;1.80;;;13.50;99.90;;;;;;4846977;29;20048;-79
2023/09/26 05:33:44;;;;;;;1.90;1.50;;;13.40;99.90;;;;;;4861144;29;20080;-79
2023/09/26 05:36:09;;;;;;;3.08;1.67;;;13.40;99.90;;;;;;4854783;29;20125;-79
2023/09/26 05:38:35;;;;;;;3.65;1.80;;;13.40;99.90;;;;;;4854650;29;20037;-79
2023/09/26 05:41:01;;;;;;;2.03;1.63;;;13.40;99.90;;;;;;4850754;29;20056;-79
2023/09/26 05:43:28;;;;;;;1.85;1.58;;;13.40;99.90;;;;;;4845470;29;20052;-79
2023/09/26 05:45:54;;;;;;;1.75;1.40;;;13.40;99.90;;;;;;4856019;29;20068;-79
2023/09/26 05:48:20;;;;;;;1.67;1.40;;;13.40;99.90;;;;;;4845667;29;20041;-83
2023/09/26 05:50:46;;;;;;;1.80;1.55;;;13.40;99.90;;;;;;4856679;29;20104;-80
2023/09/26 05:53:12;;;;;;;1.92;1.58;;;13.40;99.90;;;;;;4842374;29;20048;-79
2023/09/26 05:55:38;;;;;;;2.10;1.60;;;13.40;99.90;;;;;;4848972;29;20366;-79
2023/09/26 05:58:04;;;;;;;2.00;1.52;;;13.40;99.90;;;;;;4859126;29;20040;-79
2023/09/26 06:00:30;;;;;;;2.30;1.60;;;13.40;99.90;;;;;;4858887;29;20049;-79
2023/09/26 06:02:55;;;;;;;1.98;1.70;;;13.30;99.90;;;;;;4825210;29;20041;-79
2023/09/26 06:05:21;;;;;;;1.98;1.63;;;13.30;99.90;;;;;;4854012;29;20140;-79
2023/09/26 06:07:47;;;;;;;2.20;1.80;;;13.40;99.90;;;;;;4840459;29;20056;-80
2023/09/26 06:10:14;;;;;;;2.30;1.88;;;13.30;99.90;;;;;;4827780;29;20048;-79
2023/09/26 06:12:40;;;;;;;1.70;1.50;;;13.30;99.90;;;;;;4845053;29;20132;-79
2023/09/26 06:15:09;;;;;;;2.28;1.70;;;13.30;99.90;;;;;;4848579;29;20127;-79
2023/09/26 06:17:35;;;;;;;2.60;1.75;;;13.30;99.90;;;;;;4850853;29;20049;-79
2023/09/26 06:20:01;;;;;;;1.75;1.48;;;13.40;99.90;;;;;;4854152;29;20180;-90
2023/09/26 06:22:27;;;;;;;2.38;1.88;;;13.40;99.90;;;;;;4828940;29;20124;-80
2023/09/26 06:24:52;;;;;;;2.30;1.58;;;13.40;99.90;;;;;;4859939;29;20613;-80
2023/09/26 06:27:18;;;;;;;1.55;1.35;;;13.50;99.90;;;;;;4851037;29;20127;-80
2023/09/26 06:29:44;;;;;;;2.40;1.73;;;13.50;99.90;;;;;;4853209;29;20515;-79
2023/09/26 06:32:10;;;;;;;1.92;1.70;;;13.50;99.90;;;;;;4858209;29;20107;-79
2023/09/26 06:34:39;;;;;;;2.05;1.50;;;13.60;99.90;;;;;;4843765;29;20045;-80
2023/09/26 06:37:05;;;;;;;1.88;1.35;;;13.70;99.90;;;;;;4854554;29;20081;-79
2023/09/26 06:39:30;;;;;;;1.70;1.45;;;13.80;99.90;;;;;;4857810;29;20072;-81
2023/09/26 06:41:57;;;;;;;2.45;1.80;;;13.80;99.90;;;;;;4854412;29;20041;-80
2023/09/26 06:44:22;;;;;;;2.20;1.90;;;13.90;99.90;;;;;;4849853;29;20041;-80
2023/09/26 06:46:48;;;;;;;2.92;2.20;;;13.90;99.90;;;;;;4813969;29;20081;-80
2023/09/26 06:49:14;;;;;;;3.25;2.22;;;14.00;99.90;;;;;;4849893;29;20202;-79
2023/09/26 06:51:40;;;;;;;2.80;2.00;;;14.00;99.90;;;;;;4857815;29;20049;-80
2023/09/26 06:54:06;;;;;;;2.13;1.90;;;14.10;99.90;;;;;;4848437;29;20052;-80
2023/09/26 06:56:32;;;;;;;2.78;2.10;;;14.20;99.90;;;;;;4840649;29;20366;-80
2023/09/26 06:58:58;;;;;;;2.22;1.80;;;14.20;99.90;;;;;;4842589;29;20048;-80
2023/09/26 07:01:24;;;;;;;2.05;1.77;;;14.30;99.90;;;;;;4850406;29;20055;-80
2023/09/26 07:03:49;;;;;;;2.72;1.85;;;14.40;99.90;;;;;;4847830;29;20345;-80
2023/09/26 07:06:15;;;;;;;2.22;1.80;;;14.40;99.90;;;;;;4862108;29;20049;-81
2023/09/26 07:08:45;;;;;;;1.85;1.60;;;14.50;99.90;;;;;;4844047;29;20053;-81
2023/09/26 07:11:12;;;;;;;2.67;1.80;;;14.60;99.90;;;;;;4848532;29;20045;-81
2023/09/26 07:13:37;;;;;;;;;;;14.60;99.90;;;;;;4870140;29;20040;-81
2023/09/26 07:16:05;;;;;;;2.80;2.15;;;14.70;99.90;;;;;;4863626;29;19985;-81
2023/09/26 07:18:32;;;;;;;3.13;1.92;;;14.80;99.90;;;;;;4856273;29;20043;-81
2023/09/26 07:21:04;;;;;;;1.90;1.67;;;14.80;99.90;;;;;;4853519;29;20048;-79
2023/09/26 07:23:35;;;;;;;2.17;1.73;;;14.90;99.90;;;;;;4840166;29;20106;-80
2023/09/26 07:26:09;;;;;;;2.08;1.63;;;15.00;99.90;;;;;;4867060;29;20044;-79
2023/09/26 07:28:35;;;;;;;2.30;1.73;;;15.10;99.90;;;;;;4860232;29;20116;-79
2023/09/26 07:31:00;;;;;;;;;;;15.20;99.90;;;;;;4881078;29;20053;-79
2023/09/26 07:33:28;;;;;;;2.75;2.08;;;15.30;99.90;;;;;;4869991;29;20299;-81
2023/09/26 07:35:54;;;;;;;2.55;2.20;;;15.30;99.90;;;;;;4847710;29;20378;-80
2023/09/26 07:38:20;;;;;;;3.10;2.28;;;15.40;99.90;;;;;;4856388;29;20056;-80
2023/09/26 07:40:46;;;;;;;2.28;1.92;;;15.40;99.90;;;;;;4843361;29;20056;-80
2023/09/26 07:43:11;;;;;;;2.10;1.85;;;15.40;99.90;;;;;;4833415;29;20637;-80
2023/09/26 07:45:40;;;;;;;2.47;1.77;;;15.40;99.90;;;;;;4858542;29;20064;-80
2023/09/26 07:48:06;;;;;;;2.85;1.80;;;15.40;99.90;;;;;;4826757;29;20053;-80
2023/09/26 07:50:32;;;;;;;2.40;2.00;;;15.50;99.90;;;;;;4842830;29;20386;-80
2023/09/26 07:52:57;;;;;;;2.95;2.08;;;15.50;99.90;;;;;;4856355;29;20056;-79
2023/09/26 07:55:24;;;;;;;2.17;1.88;;;15.60;99.90;;;;;;4847643;29;20481;-79
2023/09/26 07:57:50;;;;;;;2.30;1.83;;;15.70;99.90;;;;;;4845465;29;20148;-81
2023/09/26 08:00:15;;;;;;;;;;;15.80;99.90;;;;;;4862848;29;20409;-80
2023/09/26 08:02:41;;;;;;;4.07;2.28;;;15.90;99.90;;;;;;4851542;29;19974;-80
2023/09/26 08:05:07;;;;;;;2.47;2.00;;;16.00;99.90;;;;;;4859688;29;20137;-79
2023/09/26 08:07:33;;;;;;;3.38;2.33;;;16.00;99.90;;;;;;4862062;29;20470;-80
2023/09/26 08:10:00;;;;;;;2.72;1.80;;;16.10;99.90;;;;;;4853715;29;20041;-79
2023/09/26 08:12:30;;;;;;;2.45;1.88;;;16.20;99.90;;;;;;4860193;29;20398;-79
2023/09/26 08:14:56;;;;;;;2.40;2.03;;;16.30;99.90;;;;;;4844212;29;20049;-79
2023/09/26 08:17:23;;;;;;;3.05;2.20;;;16.40;99.90;;;;;;4844959;29;20393;-80
2023/09/26 08:19:48;;;;;;;2.53;2.00;;;16.50;99.90;;;;;;4850227;29;20045;-79
2023/09/26 08:22:14;;;;;;;;;;;16.60;99.90;;;;;;4844291;29;20057;-79
2023/09/26 08:24:40;;;;;;;2.20;2.00;;;16.70;99.90;;;;;;4857317;29;19931;-80
2023/09/26 08:27:05;;;;;;;;;;;16.70;99.90;;;;;;4843593;29;20045;-82
2023/09/26 08:29:31;;;;;;;2.00;1.80;;;16.80;99.90;;;;;;4853001;29;19947;-81
2023/09/26 08:31:57;;;;;;;2.50;2.25;;;16.80;99.90;;;;;;4872930;29;20057;-81
2023/09/26 08:34:24;;;;;;;;;;;16.80;99.90;;;;;;4845678;29;20047;-80
2023/09/26 08:36:49;;;;;;;2.92;1.83;;;16.80;99.90;;;;;;4855721;29;20283;-81
2023/09/26 08:39:15;;;;;;;;;;;16.80;99.90;;;;;;4855806;29;20044;-80
2023/09/26 08:41:47;;;;;;;2.60;2.00;;;16.80;99.90;;;;;;4862826;29;20424;-80
2023/09/26 08:44:13;;;;;;;2.33;1.75;;;16.70;99.90;;;;;;4858026;29;20497;-80
2023/09/26 08:46:39;;;;;;;;;;;16.70;99.90;;;;;;4859857;29;20063;-81
2023/09/26 08:49:05;;;;;;;2.15;1.80;;;16.70;99.90;;;;;;4852288;29;19959;-81
2023/09/26 08:51:33;;;;;;;1.90;1.55;;;16.70;99.90;;;;;;4859808;29;20052;-81
2023/09/26 08:53:59;;;;;;;2.00;1.65;;;16.80;99.90;;;;;;4840303;29;20077;-81
2023/09/26 08:56:24;;;;;;;;;;;16.80;99.90;;;;;;4849592;29;20068;-81
2023/09/26 08:58:53;;;;;;;2.50;1.92;;;16.90;99.90;;;;;;4842231;29;19920;-80
2023/09/26 09:01:18;;;;;;;2.08;1.60;;;16.90;99.90;;;;;;4846546;29;20129;-81
2023/09/26 09:03:44;;;;;;;;;;;16.90;99.90;;;;;;4857868;29;20480;-81
2023/09/26 09:06:10;;;;;;;2.20;1.60;;;17.00;99.90;;;;;;4860638;29;19920;-81
2023/09/26 09:08:35;;;;;;;2.90;1.60;;;17.10;99.90;;;;;;4851719;29;20431;-81
2023/09/26 09:11:01;;;;;;;1.98;1.50;;;17.20;99.90;;;;;;4857862;29;20447;-81
2023/09/26 09:13:28;;;;;;;;;;;17.40;99.90;;;;;;4860442;29;20113;-81
2023/09/26 09:16:10;;;;;;;2.28;1.60;;;17.60;99.90;;;;;;4835067;29;20266;-82
2023/09/26 09:18:46;;;;;;;2.53;1.75;;;17.70;99.90;;;;;;4828912;29;20042;-82
2023/09/26 09:21:29;;;;;;;3.30;1.70;;;17.90;99.90;;;;;;4846262;29;20198;-85
2023/09/26 09:24:07;;;;;;;2.75;1.92;;;18.10;99.90;;;;;;4850401;29;20462;-81
2023/09/26 09:26:35;;;;;;;2.92;1.83;;;18.20;99.90;;;;;;4849366;29;20077;-81
2023/09/26 09:29:21;;;;;;;3.13;2.00;;;18.30;99.90;;;;;;4875133;29;20045;-81
2023/09/26 09:31:47;;;;;;;2.17;1.45;;;18.30;99.90;;;;;;4847407;29;20047;-81
2023/09/26 09:34:15;;;;;;;3.28;2.20;;;18.30;99.90;;;;;;4854864;29;20468;-81
2023/09/26 09:36:41;;;;;;;2.85;1.92;;;18.30;99.90;;;;;;4861757;29;20105;-82
2023/09/26 09:39:09;;;;;;;;;;;18.20;99.90;;;;;;4857963;29;20049;-81
2023/09/26 09:41:42;;;;;;;2.92;2.13;;;18.30;99.90;;;;;;4858992;29;19931;-81
2023/09/26 09:44:07;;;;;;;3.33;2.25;;;18.30;99.90;;;;;;4858248;29;20041;-81
2023/09/26 09:46:35;;;;;;;;;;;18.50;99.90;;;;;;4861148;29;20072;-81
2023/09/26 09:49:02;;;;;;;2.58;1.88;;;18.50;99.90;;;;;;4845575;29;20675;-81
2023/09/26 09:51:29;;;;;;;2.72;1.98;;;18.70;99.90;;;;;;4861728;29;20056;-81
2023/09/26 09:53:56;;;;;;;2.78;2.20;;;18.70;99.90;;;;;;4860769;29;20128;-81
2023/09/26 09:56:24;;;;;;;4.15;2.10;;;18.70;99.90;;;;;;4825368;29;20405;-81
2023/09/26 09:58:51;;;;;;;2.30;1.90;;;18.90;99.90;;;;;;4846283;29;20426;-81
2023/09/26 10:01:20;;;;;;;2.70;1.90;;;19.00;99.90;;;;;;4862005;29;20055;-81
2023/09/26 10:03:51;;;;;;;2.88;2.15;;;19.10;99.90;;;;;;4866249;29;20060;-81
2023/09/26 10:06:18;;;;;;;4.18;2.30;;;19.20;99.90;;;;;;4854081;29;20493;-81
2023/09/26 10:08:47;;;;;;;3.15;2.30;;;19.30;94.00;;;;;;4852503;29;20049;-81
2023/09/26 10:11:13;;;;;;;3.72;2.20;;;19.40;85.20;;;;;;4848929;29;20102;-81
2023/09/26 10:13:40;;;;;;;4.03;2.35;;;19.40;2.40;;;;;;4849969;29;20123;-81
2023/09/26 10:16:17;;;;;;;3.28;2.33;;;19.40;96.00;;;;;;4835866;29;20037;-81
2023/09/26 10:18:45;;;;;;;2.75;2.08;;;19.50;94.60;;;;;;4862060;29;20045;-81
2023/09/26 10:21:27;;;;;;;2.58;1.90;;;19.60;91.50;;;;;;4849225;29;20497;-81
2023/09/26 10:24:07;;;;;;;3.72;2.40;;;19.60;99.90;;;;;;4861555;29;20374;-81
2023/09/26 10:26:37;;;;;;;2.92;2.00;;;19.60;1.00;;;;;;4848572;29;20123;-82
2023/09/26 10:29:24;;;;;;;3.67;1.98;;;19.70;1.00;;;;;;4861565;29;20041;-81
2023/09/26 10:32:04;;;;;;;2.95;1.80;;;19.80;1.00;;;;;;4850710;29;20128;-82
2023/09/26 10:34:35;;;;;;;3.45;2.17;;;20.00;28.30;;;;;;4858576;29;20069;-81
2023/09/26 10:37:03;;;;;;;2.35;1.60;;;20.20;1.00;;;;;;4858835;29;20100;-81
2023/09/26 10:39:39;;;;;;;2.03;1.70;;;20.20;1.00;;;;;;4844962;29;20446;-82
2023/09/26 10:42:12;;;;;;;2.60;1.70;;;20.30;1.00;;;;;;4849556;29;20056;-82
2023/09/26 10:44:43;;;;;;;2.50;1.85;;;20.20;1.00;;;;;;4829154;29;20037;-81
2023/09/26 10:47:13;;;;;;;3.35;1.65;;;20.20;1.00;;;;;;4868841;29;20075;-82
2023/09/26 10:49:39;;;;;;;2.63;1.60;;;20.20;1.00;;;;;;4866348;29;20416;-82
2023/09/26 10:52:10;;;;;;;2.28;1.35;;;20.20;1.00;;;;;;4850046;29;20096;-80
2023/09/26 10:54:41;;;;;;;2.63;1.50;;;20.40;1.00;;;;;;4819868;29;20389;-80
2023/09/26 10:57:07;;;;;;;2.00;1.60;;;20.40;1.00;;;;;;4858374;29;20460;-80
2023/09/26 10:59:34;;;;;;;2.75;1.50;;;20.50;1.00;;;;;;4853251;29;20065;-80
2023/09/26 11:02:03;;;;;;;1.83;1.60;;;20.50;1.00;;;;;;4836077;29;20064;-81
2023/09/26 11:04:31;;;;;;;2.33;1.52;;;20.60;1.00;;;;;;4850200;29;20539;-79
2023/09/26 11:06:58;;;;;;;3.03;1.58;;;20.60;1.00;;;;;;4848408;29;20053;-79
2023/09/26 11:09:25;;;;;;;2.75;1.55;;;20.60;1.00;;;;;;4826344;29;20112;-78
2023/09/26 11:11:54;;;;;;;1.60;1.30;;;20.70;8.70;;;;;;4839791;29;20150;-81
2023/09/26 11:14:20;;;;;;;3.50;1.85;;;20.70;52.90;;;;;;4861193;29;20049;-81
2023/09/26 11:16:46;;;;;;;2.13;1.70;;;20.70;68.40;;;;;;4830962;29;20057;-81
2023/09/26 11:19:12;;;;;;;1.95;1.50;;;20.60;22.30;;;;;;4841164;29;20041;-79
2023/09/26 11:21:38;;;;;;;2.40;1.65;;;20.60;38.00;;;;;;4834533;29;20061;-81
2023/09/26 11:24:23;;;;;;;2.08;1.70;;;20.60;88.90;;;;;;4847054;29;20044;-81
2023/09/26 11:26:51;;;;;;;1.88;1.42;;;20.50;97.00;;;;;;4847120;29;20049;-81
2023/09/26 11:29:20;;;;;;;2.08;1.48;;;20.50;99.90;;;;;;4847057;29;20132;-81
2023/09/26 11:31:50;;;;;;;2.67;1.42;;;20.60;99.90;;;;;;4839712;29;20053;-81
2023/09/26 11:34:19;;;;;;;2.78;1.77;;;20.60;99.90;;;;;;4862589;29;20045;-81
2023/09/26 11:36:47;;;;;;;2.20;1.52;;;20.60;99.90;;;;;;4841778;29;20350;-81
2023/09/26 11:39:23;;;;;;;1.75;1.30;;;20.70;99.90;;;;;;4851977;29;20060;-81
2023/09/26 11:42:05;;;;;;;2.65;1.52;;;20.60;99.90;;;;;;4846980;29;20527;-81
2023/09/26 11:44:31;;;;;;;2.38;1.40;;;20.60;99.90;;;;;;4839032;29;20490;-81
2023/09/26 11:46:58;;;;;;;2.05;1.48;;;20.50;99.90;;;;;;4844537;29;20058;-81
2023/09/26 11:49:24;;;;;;;1.90;1.40;;;20.60;99.90;;;;;;4846412;29;20105;-81
2023/09/26 11:51:51;;;;;;;1.50;1.20;;;20.60;99.90;;;;;;4853315;29;20136;-81
2023/09/26 11:54:17;;;;;;;1.90;1.20;;;20.70;99.90;;;;;;4855789;29;20057;-81
2023/09/26 11:56:45;;;;;;;1.88;1.42;;;20.70;99.90;;;;;;4838833;29;20049;-81
2023/09/26 11:59:12;;;;;;;1.98;1.25;;;20.80;80.10;;;;;;4858533;29;20116;-81
2023/09/26 12:01:41;;;;;;;1.60;1.30;;;20.90;90.20;;;;;;4867283;29;20489;-81
2023/09/26 12:04:10;;;;;;;2.53;1.60;;;20.90;65.40;;;;;;4865288;29;20045;-81
2023/09/26 12:06:36;;;;;;;2.00;1.50;;;20.90;16.50;;;;;;4856752;29;20057;-81
2023/09/26 12:09:05;;;;;;;1.15;0.95;;;21.00;65.80;;;;;;4851937;29;20446;-81
2023/09/26 12:11:31;;;;;;;1.90;1.30;;;21.10;99.90;;;;;;4862431;29;20056;-81
2023/09/26 12:13:57;;;;;;;2.13;1.30;;;21.20;20.80;;;;;;4852051;29;20053;-82
2023/09/26 12:16:23;;;;;;;2.03;1.50;;;21.30;23.30;;;;;;4861638;29;20045;-81
2023/09/26 12:18:49;;;;;;;2.15;1.60;;;21.30;1.00;;;;;;4858580;29;20052;-81
2023/09/26 12:21:16;;;;;;;1.50;1.13;;;21.40;1.00;;;;;;4848024;29;20072;-83
2023/09/26 12:23:41;;;;;;;1.38;1.10;;;21.50;1.00;;;;;;4857443;29;20033;-82
2023/09/26 12:26:07;;;;;;;1.92;1.25;;;21.60;1.90;;;;;;4850766;29;20617;-81
2023/09/26 12:28:35;;;;;;;1.70;1.20;;;21.60;1.00;;;;;;4855926;29;20045;-81
2023/09/26 12:31:01;;;;;;;1.88;1.33;;;21.80;1.00;;;;;;4862730;29;20394;-81
2023/09/26 12:33:26;;;;;;;1.30;1.00;;;22.00;99.90;;;;;;4855389;29;20053;-81
2023/09/26 12:35:52;;;;;;;2.03;1.30;;;22.10;99.90;;;;;;4847725;29;20077;-82
2023/09/26 12:38:18;;;;;;;1.55;1.30;;;22.10;99.90;;;;;;4824858;29;20037;-81
2023/09/26 12:40:44;;;;;;;1.77;1.20;;;22.10;99.90;;;;;;4847179;29;20124;-81
2023/09/26 12:43:09;;;;;;;1.70;1.30;;;22.10;99.90;;;;;;4846665;29;20084;-81
2023/09/26 12:45:35;;;;;;;2.05;1.45;;;22.20;99.90;;;;;;4846290;29;20052;-81
2023/09/26 12:48:01;;;;;;;2.55;1.55;;;22.00;96.80;;;;;;4852680;29;20063;-82
2023/09/26 12:50:28;;;;;;;2.42;1.73;;;22.00;99.90;;;;;;4844090;29;20061;-81
2023/09/26 12:52:56;;;;;;;1.48;1.30;;;22.30;99.90;;;;;;4860232;29;20412;-81